Time;durP1;ratioP1;P1;durP2;ratioP2;P2;SDS_P1;SDS_P2;PMS_P1;PMS_P2;Temp;Humidity;BMP_temperature;BMP_pressure;BME280_temperature;BME280_humidity;BME280_pressure;Samples;Min_cycle;Max_cycle;Signal;HPM_P1;HPM_P2
2021/12/07 00:00:45;;;;;;;;;;;22.70;99.90;;;;;;5093740;28;19923;-64
2021/12/07 00:03:12;;;;;;;;;;;22.80;99.90;;;;;;5093871;28;19908;-64
2021/12/07 00:05:39;;;;;;;;;;;22.80;99.90;;;;;;5075600;28;19995;-65
2021/12/07 00:08:05;;;;;;;;;;;22.90;99.90;;;;;;5109770;28;20383;-67
2021/12/07 00:10:32;;;;;;;;;;;23.00;99.90;;;;;;5114050;28;19915;-65
2021/12/07 00:13:00;;;;;;;;;;;23.20;99.90;;;;;;5095917;28;20371;-68
2021/12/07 00:15:29;;;;;;;;;;;23.50;99.90;;;;;;5114093;28;19907;-63
2021/12/07 00:17:56;;;;;;;;;;;23.80;99.60;;;;;;5113927;28;20300;-64
2021/12/07 00:20:26;;;;;;;;;;;24.20;99.60;;;;;;5095256;28;20307;-64
2021/12/07 00:22:54;;;;;;;;;;;24.40;98.90;;;;;;5113820;28;20280;-63
2021/12/07 00:25:21;;;;;;;;;;;24.40;98.50;;;;;;5113858;28;19911;-63
2021/12/07 00:27:48;;;;;;;;;;;24.50;98.60;;;;;;5095640;28;19908;-67
2021/12/07 00:30:15;;;;;;;;;;;24.60;98.60;;;;;;5114090;28;19912;-66
2021/12/07 00:33:05;;;;;;;;;;;24.70;98.30;;;;;;5087727;28;19912;-64
2021/12/07 00:35:35;;;;;;;;;;;24.90;98.40;;;;;;5078138;28;19912;-64
2021/12/07 00:38:12;;;;;;;;;;;25.10;98.50;;;;;;5113652;28;19914;-64
2021/12/07 00:40:39;;;;;;;;;;;25.20;98.10;;;;;;5077555;28;19927;-64
2021/12/07 00:43:06;;;;;;;;;;;25.20;97.80;;;;;;5095016;28;19934;-64
2021/12/07 00:45:34;;;;;;;;;;;25.10;97.80;;;;;;5112413;28;20020;-64
2021/12/07 00:48:01;;;;;;;;;;;25.10;97.90;;;;;;5104919;28;19912;-64
2021/12/07 00:50:28;;;;;;;;;;;25.10;97.80;;;;;;5111014;28;19912;-64
2021/12/07 00:52:54;;;;;;;;;;;25.30;98.00;;;;;;5110100;28;19926;-64
2021/12/07 00:55:23;;;;;;;;;;;25.60;97.90;;;;;;5113295;28;20311;-68
2021/12/07 00:57:53;;;;;;;;;;;25.60;97.40;;;;;;5094727;28;20280;-64
2021/12/07 01:00:20;;;;;;;;;;;25.60;97.30;;;;;;5087289;28;20170;-64
2021/12/07 01:02:46;;;;;;;;;;;25.90;97.20;;;;;;5074515;28;19914;-64
2021/12/07 01:05:22;;;;;;;;;;;26.10;97.10;;;;;;5099631;28;19957;-64
2021/12/07 01:08:12;;;;;;;;;;;26.30;96.60;;;;;;5095981;28;19939;-64
2021/12/07 01:24:41;;;;;;;;;;;26.60;95.60;;;;;;5114233;28;19933;-64
2021/12/07 01:27:08;;;;;;;;;;;26.80;95.90;;;;;;5100082;28;19913;-64
2021/12/07 01:29:37;;;;;;;;;;;27.10;95.40;;;;;;5116630;28;19908;-63
2021/12/07 01:37:57;;;;;;;;;;;27.90;94.60;;;;;;5096616;28;20007;-67
2021/12/07 01:40:21;;;;;;;;;;;28.10;94.30;;;;;;5085310;28;19973;-67
2021/12/07 01:43:19;;;;;;;;;;;28.50;94.20;;;;;;5096175;28;19920;-67
2021/12/07 01:57:46;;;;;;;;;;;28.90;93.00;;;;;;5093506;28;20405;-66
2021/12/07 02:01:27;;;;;;;;;;;29.00;92.80;;;;;;5096192;28;19919;-70
2021/12/07 02:03:54;;;;;;;;;;;29.30;92.70;;;;;;5096340;28;19912;-67
2021/12/07 02:06:21;;;;;;;;;;;29.20;91.80;;;;;;5115514;28;19938;-69
2021/12/07 02:08:47;;;;;;;;;;;29.00;91.80;;;;;;5112058;28;19915;-69
2021/12/07 02:11:14;;;;;;;;;;;28.60;92.40;;;;;;5096150;28;20387;-66
2021/12/07 02:16:08;;;;;;;;;;;28.20;92.50;;;;;;5116011;28;19912;-66
2021/12/07 02:18:35;;;;;;;;;;;28.10;92.30;;;;;;5104827;28;19916;-66
2021/12/07 02:21:17;;;;;;;;;;;28.00;92.10;;;;;;5083948;28;20276;-65
2021/12/07 02:23:43;;;;;;;;;;;28.20;92.60;;;;;;5087031;28;19919;-66
2021/12/07 02:26:10;;;;;;;;;;;28.90;92.40;;;;;;5115383;28;19921;-66
2021/12/07 02:28:39;;;;;;;;;;;29.40;91.30;;;;;;5115825;28;19911;-65
2021/12/07 02:31:07;;;;;;;;;;;29.50;91.00;;;;;;5092665;28;19920;-64
2021/12/07 02:33:33;;;;;;;;;;;29.90;91.40;;;;;;5068906;28;20014;-65
2021/12/07 02:36:00;;;;;;;;;;;30.30;90.60;;;;;;5098148;28;19923;-65
2021/12/07 02:38:27;;;;;;;;;;;30.50;90.30;;;;;;5095572;28;19958;-65
2021/12/07 02:40:54;;;;;;;;;;;30.40;89.40;;;;;;5074488;28;19920;-65
2021/12/07 02:43:20;;;;;;;;;;;30.50;89.50;;;;;;5107915;28;20365;-65
2021/12/07 02:45:47;;;;;;;;;;;30.50;88.20;;;;;;5087675;28;19912;-65
2021/12/07 02:48:14;;;;;;;;;;;30.30;89.10;;;;;;5113866;28;19919;-65
2021/12/07 02:50:40;;;;;;;;;;;30.40;88.70;;;;;;5093295;28;19951;-66
2021/12/07 02:53:07;;;;;;;;;;;30.50;87.50;;;;;;5093409;28;20421;-66
2021/12/07 02:55:34;;;;;;;;;;;30.30;88.70;;;;;;5099919;28;20386;-65
2021/12/07 02:58:04;;;;;;;;;;;30.00;89.40;;;;;;5088137;28;19966;-65
2021/12/07 03:00:40;;;;;;;;;;;29.70;89.90;;;;;;5111027;28;19912;-66
2021/12/07 03:03:10;;;;;;;;;;;29.60;90.30;;;;;;5081468;28;19974;-65
2021/12/07 03:08:41;;;;;;;;;;;30.00;89.30;;;;;;5103412;28;20431;-66
2021/12/07 03:27:24;;;;;;;;;;;32.70;83.30;;;;;;5104722;28;19919;-67
2021/12/07 03:29:51;;;;;;;;;;;33.10;82.70;;;;;;5109182;28;19918;-68
2021/12/07 03:32:18;;;;;;;;;;;33.40;82.30;;;;;;5076530;28;19951;-68
2021/12/07 03:34:45;;;;;;;;;;;33.50;81.70;;;;;;5112212;28;19915;-69
2021/12/07 03:37:11;;;;;;;;;;;33.80;81.30;;;;;;5105572;28;20369;-67
2021/12/07 03:39:38;;;;;;;;;;;34.00;79.20;;;;;;5101515;28;20284;-68
2021/12/07 03:42:05;;;;;;;;;;;34.10;77.70;;;;;;5111382;28;20020;-68
2021/12/07 03:44:33;;;;;;;;;;;34.40;76.20;;;;;;5104629;28;19912;-64
2021/12/07 03:46:59;;;;;;;;;;;34.60;76.80;;;;;;5076506;28;19998;-63
2021/12/07 03:49:26;;;;;;;;;;;34.80;74.70;;;;;;5093988;28;19927;-66
2021/12/07 03:51:53;;;;;;;;;;;34.60;73.10;;;;;;5094024;28;19916;-67
2021/12/07 03:54:20;;;;;;;;;;;33.90;73.20;;;;;;5086437;27;20000;-64
2021/12/07 03:56:47;;;;;;;;;;;33.20;74.00;;;;;;5083538;28;20003;-66
2021/12/07 03:59:13;;;;;;;;;;;32.50;74.60;;;;;;5093642;28;19912;-64
2021/12/07 04:01:40;;;;;;;;;;;31.90;75.80;;;;;;5098679;28;19916;-63
2021/12/07 04:04:07;;;;;;;;;;;31.40;76.70;;;;;;5107168;28;19912;-65
2021/12/07 04:06:34;;;;;;;;;;;30.70;77.60;;;;;;5110118;28;20303;-64
2021/12/07 04:09:00;;;;;;;;;;;30.20;78.00;;;;;;5085355;28;20330;-64
2021/12/07 04:11:27;;;;;;;;;;;29.60;77.10;;;;;;5112926;28;19927;-63
2021/12/07 04:13:54;;;;;;;;;;;29.20;79.00;;;;;;5109856;28;19934;-65
2021/12/07 04:16:20;;;;;;;;;;;28.90;78.80;;;;;;5104188;28;19916;-64
2021/12/07 04:18:47;;;;;;;;;;;28.70;79.90;;;;;;5111541;28;19951;-63
2021/12/07 04:21:14;;;;;;;;;;;28.40;81.50;;;;;;5112124;28;20367;-63
2021/12/07 04:23:40;;;;;;;;;;;28.10;83.60;;;;;;5098762;28;20011;-63
2021/12/07 04:26:08;;;;;;;;;;;27.80;86.50;;;;;;5092869;28;20334;-62
2021/12/07 04:28:35;;;;;;;;;;;26.60;92.10;;;;;;5092446;28;19943;-62
2021/12/07 04:31:01;;;;;;;;;;;25.30;95.40;;;;;;5092573;28;19908;-66
2021/12/07 04:33:31;;;;;;;;;;;24.70;98.10;;;;;;5101946;28;20409;-64
2021/12/07 04:35:57;;;;;;;;;;;24.20;99.90;;;;;;5112770;28;20410;-63
2021/12/07 04:38:24;;;;;;;;;;;23.80;99.90;;;;;;5112687;28;19919;-62
2021/12/07 04:40:51;;;;;;;;;;;23.40;99.90;;;;;;5112481;28;19972;-62
2021/12/07 04:43:17;;;;;;;;;;;23.30;99.90;;;;;;5082944;28;20388;-62
2021/12/07 04:59:25;;;;;;;;;;;23.40;99.90;;;;;;5092949;28;20142;-63
2021/12/07 05:01:51;;;;;;;;;;;23.50;99.90;;;;;;5075052;28;19920;-64
2021/12/07 05:04:23;;;;;;;;;;;23.50;99.90;;;;;;5092981;28;19908;-61
2021/12/07 05:06:55;;;;;;;;;;;23.70;99.90;;;;;;5093077;28;19954;-62
2021/12/07 05:14:20;;;;;;;;;;;24.80;99.90;;;;;;5092872;28;20425;-62
2021/12/07 05:16:57;;;;;;;;;;;24.90;99.90;;;;;;5093993;28;19921;-62
2021/12/07 05:38:29;;;;;;;;;;;24.90;99.90;;;;;;5112755;28;19919;-62
2021/12/07 05:40:55;;;;;;;;;;;24.70;99.90;;;;;;5112719;28;20384;-62
2021/12/07 05:43:22;;;;;;;;;;;24.50;99.90;;;;;;5113455;28;20348;-63
2021/12/07 05:45:49;;;;;;;;;;;24.30;99.90;;;;;;5094907;28;19915;-64
2021/12/07 05:48:15;;;;;;;;;;;24.20;99.90;;;;;;5112755;28;20391;-62
2021/12/07 05:50:42;;;;;;;;;;;24.10;99.90;;;;;;5085327;28;19912;-62
2021/12/07 05:53:11;;;;;;;;;;;23.90;99.90;;;;;;5111867;28;20391;-62
2021/12/07 05:55:38;;;;;;;;;;;23.80;99.90;;;;;;5082471;28;19947;-62
2021/12/07 05:58:07;;;;;;;;;;;23.70;99.90;;;;;;5112824;28;20350;-62
2021/12/07 06:00:34;;;;;;;;;;;23.70;99.90;;;;;;5100552;28;19912;-62
2021/12/07 06:03:03;;;;;;;;;;;23.60;99.90;;;;;;5074579;28;20349;-62
2021/12/07 06:05:29;;;;;;;;;;;23.60;99.90;;;;;;5081486;28;19919;-62
2021/12/07 06:07:56;;;;;;;;;;;23.50;99.90;;;;;;5104178;28;19912;-62
2021/12/07 06:10:23;;;;;;;;;;;23.40;99.90;;;;;;5106492;28;19911;-62
2021/12/07 06:12:50;;;;;;;;;;;23.40;99.90;;;;;;5103490;28;19909;-62
2021/12/07 06:15:18;;;;;;;;;;;23.30;99.90;;;;;;5115883;28;19911;-62
2021/12/07 06:17:44;;;;;;;;;;;23.30;99.90;;;;;;5114407;28;19915;-62
2021/12/07 06:20:11;;;;;;;;;;;23.20;99.90;;;;;;5088071;28;20062;-62
2021/12/07 06:22:38;;;;;;;;;;;23.20;99.90;;;;;;5116041;28;20014;-62
2021/12/07 06:25:05;;;;;;;;;;;23.10;99.90;;;;;;5079661;28;19908;-62
2021/12/07 06:27:32;;;;;;;;;;;23.00;99.90;;;;;;5115921;28;19912;-63
2021/12/07 06:29:59;;;;;;;;;;;22.90;99.90;;;;;;5097886;28;19912;-62
2021/12/07 06:32:25;;;;;;;;;;;22.90;99.90;;;;;;5113883;28;20289;-62
2021/12/07 06:34:52;;;;;;;;;;;22.90;99.90;;;;;;5077504;28;19991;-62
2021/12/07 06:37:19;;;;;;;;;;;22.90;99.90;;;;;;5108952;28;19919;-62
2021/12/07 06:39:46;;;;;;;;;;;23.00;99.90;;;;;;5090674;28;19973;-62
2021/12/07 06:42:12;;;;;;;;;;;23.00;99.90;;;;;;5097535;28;19919;-62
2021/12/07 06:44:39;;;;;;;;;;;23.00;99.90;;;;;;5115716;28;19961;-62
2021/12/07 06:47:05;;;;;;;;;;;23.00;99.90;;;;;;5115689;28;19911;-62
2021/12/07 06:49:32;;;;;;;;;;;23.00;99.90;;;;;;5115670;28;20375;-62
2021/12/07 06:51:59;;;;;;;;;;;23.10;99.90;;;;;;5116058;28;19915;-62
2021/12/07 06:54:25;;;;;;;;;;;23.10;99.90;;;;;;5115483;28;19911;-62
2021/12/07 06:56:53;;;;;;;;;;;23.10;99.90;;;;;;5097525;28;20296;-62
2021/12/07 06:59:19;;;;;;;;;;;23.10;99.90;;;;;;5097160;28;19908;-62
2021/12/07 07:01:46;;;;;;;;;;;23.00;99.90;;;;;;5115202;28;19919;-62
2021/12/07 07:04:14;;;;;;;;;;;23.10;99.90;;;;;;5115337;28;19915;-62
2021/12/07 07:06:41;;;;;;;;;;;23.00;99.90;;;;;;5115287;28;19915;-62
2021/12/07 07:09:08;;;;;;;;;;;23.00;99.90;;;;;;5115225;28;20393;-62
2021/12/07 07:11:34;;;;;;;;;;;23.00;99.90;;;;;;5096887;28;19922;-62
2021/12/07 07:14:01;;;;;;;;;;;22.90;99.90;;;;;;5115079;28;19970;-62
2021/12/07 07:16:28;;;;;;;;;;;22.80;99.90;;;;;;5115058;28;20000;-62
2021/12/07 07:18:55;;;;;;;;;;;22.80;99.90;;;;;;5115019;28;19916;-61
2021/12/07 07:21:22;;;;;;;;;;;22.70;99.90;;;;;;5114822;28;19954;-62
2021/12/07 07:23:49;;;;;;;;;;;22.60;99.90;;;;;;5115002;28;19915;-61
2021/12/07 07:26:16;;;;;;;;;;;22.60;99.90;;;;;;5114850;28;20014;-62
2021/12/07 07:28:42;;;;;;;;;;;22.50;99.90;;;;;;5114802;28;19930;-61
2021/12/07 07:31:10;;;;;;;;;;;22.60;99.90;;;;;;5114751;28;20164;-61
2021/12/07 07:33:36;;;;;;;;;;;22.50;99.90;;;;;;5114781;28;19915;-61
2021/12/07 07:36:03;;;;;;;;;;;22.60;99.90;;;;;;5114699;28;20421;-62
2021/12/07 07:38:30;;;;;;;;;;;22.60;99.90;;;;;;5114357;28;19914;-62
2021/12/07 07:40:57;;;;;;;;;;;22.60;99.90;;;;;;5114314;28;19920;-60
2021/12/07 07:43:24;;;;;;;;;;;22.60;99.90;;;;;;5114077;28;20334;-62
2021/12/07 07:45:51;;;;;;;;;;;22.60;99.90;;;;;;5114574;28;19930;-62
2021/12/07 07:48:18;;;;;;;;;;;22.60;99.90;;;;;;5114302;28;19915;-63
2021/12/07 07:50:44;;;;;;;;;;;22.60;99.90;;;;;;5113950;28;19915;-62
2021/12/07 07:53:11;;;;;;;;;;;22.60;99.90;;;;;;5114556;28;19907;-61
2021/12/07 07:55:42;;;;;;;;;;;22.60;99.90;;;;;;5113143;28;20478;-63
2021/12/07 07:58:09;;;;;;;;;;;22.70;99.90;;;;;;5114293;28;19960;-63
2021/12/07 08:00:36;;;;;;;;;;;22.60;99.90;;;;;;5113924;28;19908;-62
2021/12/07 08:03:03;;;;;;;;;;;22.50;99.90;;;;;;5114188;28;19914;-62
2021/12/07 08:05:30;;;;;;;;;;;22.50;99.90;;;;;;5114222;28;20000;-62
2021/12/07 08:07:57;;;;;;;;;;;22.50;99.90;;;;;;5114124;28;20279;-62
2021/12/07 08:10:28;;;;;;;;;;;22.40;99.90;;;;;;5114123;28;19908;-62
2021/12/07 08:12:58;;;;;;;;;;;22.40;99.90;;;;;;5086697;28;19908;-62
2021/12/07 08:15:25;;;;;;;;;;;22.40;99.90;;;;;;5093696;28;20254;-62
2021/12/07 08:17:52;;;;;;;;;;;22.30;99.90;;;;;;5096902;28;19923;-62
2021/12/07 08:20:19;;;;;;;;;;;22.30;99.90;;;;;;5113884;28;19965;-62
2021/12/07 08:22:45;;;;;;;;;;;22.30;99.90;;;;;;5113851;28;20056;-62
2021/12/07 08:25:12;;;;;;;;;;;22.30;99.90;;;;;;5113843;28;19908;-62
2021/12/07 08:27:39;;;;;;;;;;;22.20;99.90;;;;;;5100470;28;19915;-61
2021/12/07 08:30:06;;;;;;;;;;;22.20;99.90;;;;;;5112713;28;20387;-62
2021/12/07 08:32:32;;;;;;;;;;;22.20;99.90;;;;;;5067301;28;20273;-64
2021/12/07 08:34:59;;;;;;;;;;;22.10;99.90;;;;;;5108009;28;19919;-63
2021/12/07 08:37:26;;;;;;;;;;;22.10;99.90;;;;;;5087263;28;19912;-63
2021/12/07 08:39:53;;;;;;;;;;;22.10;99.90;;;;;;5095150;28;19920;-62
2021/12/07 08:42:19;;;;;;;;;;;22.00;99.90;;;;;;5094576;28;19984;-62
2021/12/07 08:44:47;;;;;;;;;;;22.00;99.90;;;;;;5113136;28;19912;-63
2021/12/07 08:47:13;;;;;;;;;;;22.00;99.90;;;;;;5111885;28;20026;-62
2021/12/07 08:49:40;;;;;;;;;;;22.00;99.90;;;;;;5103803;28;19912;-62
2021/12/07 08:52:07;;;;;;;;;;;21.90;99.90;;;;;;5095444;28;20056;-62
2021/12/07 08:59:38;;;;;;;;;;;21.80;99.90;;;;;;5094198;28;19918;-62
2021/12/07 09:00:05;;;;;;;;;;;21.80;99.90;;;;;;5093053;28;19965;-62
2021/12/07 09:02:33;;;;;;;;;;;21.70;99.90;;;;;;5105522;28;19916;-62
2021/12/07 09:05:00;;;;;;;;;;;21.70;99.90;;;;;;5113073;28;20426;-62
2021/12/07 09:07:26;;;;;;;;;;;21.70;99.90;;;;;;5112826;28;20012;-62
2021/12/07 09:09:53;;;;;;;;;;;21.60;99.90;;;;;;5113327;28;20272;-62
2021/12/07 09:12:20;;;;;;;;;;;21.60;99.90;;;;;;5094114;28;19939;-62
2021/12/07 09:14:47;;;;;;;;;;;21.60;99.90;;;;;;5093001;28;20390;-62
2021/12/07 09:17:14;;;;;;;;;;;21.60;99.90;;;;;;5094402;28;20185;-62
2021/12/07 09:19:41;;;;;;;;;;;21.60;99.90;;;;;;5107840;28;20318;-62
2021/12/07 09:22:08;;;;;;;;;;;21.50;99.90;;;;;;5092514;28;19916;-62
2021/12/07 09:24:34;;;;;;;;;;;21.50;99.90;;;;;;5112978;28;19954;-62
2021/12/07 09:27:01;;;;;;;;;;;21.50;99.90;;;;;;5092813;28;20310;-62
2021/12/07 09:29:28;;;;;;;;;;;21.40;99.90;;;;;;5084576;28;19919;-61
2021/12/07 09:31:55;;;;;;;;;;;21.30;99.90;;;;;;5092740;28;20364;-62
2021/12/07 09:34:22;;;;;;;;;;;21.30;99.90;;;;;;5075966;28;19965;-62
2021/12/07 09:36:49;;;;;;;;;;;21.20;99.90;;;;;;5105676;28;20368;-61
2021/12/07 09:39:16;;;;;;;;;;;21.20;99.90;;;;;;5112990;28;19916;-61
2021/12/07 09:41:43;;;;;;;;;;;21.20;99.90;;;;;;5101178;28;20391;-62
2021/12/07 09:44:10;;;;;;;;;;;21.10;99.90;;;;;;5097746;28;20380;-62
2021/12/07 09:46:37;;;;;;;;;;;21.10;99.90;;;;;;5096398;28;19934;-62
2021/12/07 09:49:04;;;;;;;;;;;21.10;99.90;;;;;;5111105;28;19950;-61
2021/12/07 09:51:32;;;;;;;;;;;21.10;99.90;;;;;;5104174;28;20353;-62
2021/12/07 09:53:58;;;;;;;;;;;21.10;99.90;;;;;;5116091;28;19911;-61
2021/12/07 09:56:25;;;;;;;;;;;21.10;99.90;;;;;;5107514;28;19923;-62
2021/12/07 09:58:53;;;;;;;;;;;21.10;99.90;;;;;;5092131;28;19960;-61
2021/12/07 10:01:20;;;;;;;;;;;21.10;99.90;;;;;;5103895;28;20003;-64
2021/12/07 10:03:47;;;;;;;;;;;21.10;99.90;;;;;;5088236;28;20310;-61
2021/12/07 10:06:14;;;;;;;;;;;21.00;99.90;;;;;;5115722;28;19915;-62
2021/12/07 10:08:41;;;;;;;;;;;21.00;99.90;;;;;;5109161;28;19934;-62
2021/12/07 10:11:09;;;;;;;;;;;21.00;99.90;;;;;;5099139;28;19930;-62
2021/12/07 10:13:35;;;;;;;;;;;20.90;99.90;;;;;;5099838;28;19919;-62
2021/12/07 10:16:04;;;;;;;;;;;21.00;99.90;;;;;;5116191;28;19919;-66
2021/12/07 10:18:36;;;;;;;;;;;21.00;99.90;;;;;;5084350;28;20443;-63
2021/12/07 10:21:04;;;;;;;;;;;21.00;99.90;;;;;;5095811;28;19975;-63
2021/12/07 10:23:36;;;;;;;;;;;21.00;99.90;;;;;;5095882;28;19930;-63
2021/12/07 10:26:06;;;;;;;;;;;20.90;99.90;;;;;;5077910;28;19912;-61
2021/12/07 10:28:37;;;;;;;;;;;20.90;99.90;;;;;;5110678;28;19912;-61
2021/12/07 10:31:14;;;;;;;;;;;20.90;99.90;;;;;;5113795;28;19908;-61
2021/12/07 10:33:42;;;;;;;;;;;20.80;99.90;;;;;;5090685;28;19909;-62
2021/12/07 10:36:09;;;;;;;;;;;20.80;99.90;;;;;;5095635;28;19912;-62
2021/12/07 10:38:38;;;;;;;;;;;20.80;99.90;;;;;;5095370;28;20279;-61
2021/12/07 10:41:07;;;;;;;;;;;20.80;99.90;;;;;;5095320;28;20408;-61
2021/12/07 10:43:43;;;;;;;;;;;20.80;99.90;;;;;;5095496;28;20387;-62
2021/12/07 10:46:28;;;;;;;;;;;20.70;99.90;;;;;;5105076;28;19958;-62
2021/12/07 10:49:28;;;;;;;;;;;20.70;99.90;;;;;;5114405;28;19908;-63
2021/12/07 10:52:04;;;;;;;;;;;20.70;99.90;;;;;;5070436;28;19955;-62
2021/12/07 10:54:33;;;;;;;;;;;20.70;99.90;;;;;;5114513;28;19908;-62
2021/12/07 10:57:03;;;;;;;;;;;20.70;99.90;;;;;;5115584;28;20380;-62
2021/12/07 10:59:30;;;;;;;;;;;20.70;99.90;;;;;;5114195;28;19915;-62
2021/12/07 11:01:57;;;;;;;;;;;20.70;99.90;;;;;;5115336;28;20019;-62
2021/12/07 11:04:31;;;;;;;;;;;20.70;99.90;;;;;;5115393;28;19907;-62
2021/12/07 11:07:17;;;;;;;;;;;20.70;99.90;;;;;;5115312;28;19915;-62
2021/12/07 11:09:58;;;;;;;;;;;20.70;99.90;;;;;;5115280;28;19908;-62
2021/12/07 11:12:25;;;;;;;;;;;20.60;99.90;;;;;;5097191;28;19961;-62
2021/12/07 11:14:54;;;;;;;;;;;20.70;99.90;;;;;;5113851;28;20364;-62
2021/12/07 11:17:22;;;;;;;;;;;20.60;99.90;;;;;;5115139;28;20427;-62
2021/12/07 11:19:49;;;;;;;;;;;20.60;99.90;;;;;;5115058;28;20309;-62
2021/12/07 11:22:16;;;;;;;;;;;20.60;99.90;;;;;;5115050;28;19922;-62
2021/12/07 11:24:44;;;;;;;;;;;20.50;99.90;;;;;;5115077;28;20045;-62
2021/12/07 11:29:59;;;;;;;;;;;20.50;99.90;;;;;;5113395;28;19915;-63
2021/12/07 11:32:26;;;;;;;;;;;20.50;99.90;;;;;;5114053;28;19957;-62
2021/12/07 11:34:53;;;;;;;;;;;20.50;99.90;;;;;;5114568;28;19908;-62
2021/12/07 11:37:23;;;;;;;;;;;20.50;99.90;;;;;;5114778;28;19980;-66
2021/12/07 11:39:52;;;;;;;;;;;20.50;99.90;;;;;;5114430;28;20265;-62
2021/12/07 11:42:23;;;;;;;;;;;20.50;99.90;;;;;;5096725;28;19912;-64
2021/12/07 11:44:55;;;;;;;;;;;20.50;99.90;;;;;;5114602;28;19943;-63
2021/12/07 11:47:25;;;;;;;;;;;20.50;99.90;;;;;;5114564;28;20418;-61
2021/12/07 11:49:52;;;;;;;;;;;20.60;99.90;;;;;;5096538;28;19908;-62
2021/12/07 11:52:19;;;;;;;;;;;20.60;99.90;;;;;;5114547;28;19907;-62
2021/12/07 11:54:45;;;;;;;;;;;20.60;99.90;;;;;;5114540;28;20379;-62
2021/12/07 11:57:13;;;;;;;;;;;20.60;99.90;;;;;;5114197;28;20363;-62
2021/12/07 11:59:40;;;;;;;;;;;20.60;99.90;;;;;;5114235;28;19970;-62
2021/12/07 12:02:07;;;;;;;;;;;20.60;99.90;;;;;;5113514;28;19912;-63
2021/12/07 12:04:33;;;;;;;;;;;20.60;99.90;;;;;;5095949;28;20003;-62
2021/12/07 12:07:00;;;;;;;;;;;20.60;99.90;;;;;;5095826;28;19961;-62
2021/12/07 12:09:27;;;;;;;;;;;20.60;99.90;;;;;;5114276;28;20356;-62
2021/12/07 12:12:12;;;;;;;;;;;20.60;99.90;;;;;;5096186;28;20276;-62
2021/12/07 12:14:56;;;;;;;;;;;20.60;99.90;;;;;;5113835;28;19912;-62
2021/12/07 12:17:29;;;;;;;;;;;20.60;99.90;;;;;;5113984;28;19908;-62
2021/12/07 12:19:58;;;;;;;;;;;20.60;99.90;;;;;;5113609;28;20364;-62
2021/12/07 12:22:39;;;;;;;;;;;20.60;99.90;;;;;;5113268;28;20364;-63
2021/12/07 12:25:13;;;;;;;;;;;20.60;99.90;;;;;;5113865;28;20279;-63
2021/12/07 12:27:40;;;;;;;;;;;20.60;99.90;;;;;;5113718;28;19915;-63
2021/12/07 12:30:19;;;;;;;;;;;20.70;99.90;;;;;;5113779;28;20309;-62
2021/12/07 12:32:47;;;;;;;;;;;20.60;99.90;;;;;;5095082;28;19912;-62
2021/12/07 12:35:14;;;;;;;;;;;20.60;99.90;;;;;;5095708;28;19915;-62
2021/12/07 12:37:48;;;;;;;;;;;20.60;99.90;;;;;;5113741;28;19912;-62
2021/12/07 12:40:21;;;;;;;;;;;20.60;99.90;;;;;;5113387;28;20364;-63
2021/12/07 12:42:49;;;;;;;;;;;20.60;99.90;;;;;;5095297;28;19918;-62
2021/12/07 12:45:25;;;;;;;;;;;20.50;99.90;;;;;;5111666;28;19918;-63
2021/12/07 12:47:59;;;;;;;;;;;20.50;99.90;;;;;;5090464;28;20379;-62
2021/12/07 12:50:33;;;;;;;;;;;20.50;99.90;;;;;;5084553;28;19912;-62
2021/12/07 12:53:01;;;;;;;;;;;20.40;99.90;;;;;;5074940;28;20011;-62
2021/12/07 12:55:28;;;;;;;;;;;20.40;99.90;;;;;;5075287;28;19912;-63
2021/12/07 12:57:55;;;;;;;;;;;20.40;99.90;;;;;;5093125;28;19923;-63
2021/12/07 13:00:22;;;;;;;;;;;20.40;99.90;;;;;;5093074;28;19912;-63
2021/12/07 13:02:55;;;;;;;;;;;20.40;99.90;;;;;;5074874;28;19918;-63
2021/12/07 13:05:35;;;;;;;;;;;20.40;99.90;;;;;;5093086;28;19912;-62
2021/12/07 13:08:15;;;;;;;;;;;20.40;99.90;;;;;;5093071;28;19999;-62
2021/12/07 13:10:55;;;;;;;;;;;20.40;99.90;;;;;;5093007;28;20261;-63
2021/12/07 13:13:34;;;;;;;;;;;20.40;99.90;;;;;;5058781;28;19931;-62
2021/12/07 13:16:16;;;;;;;;;;;20.40;99.90;;;;;;5097068;28;20358;-63
2021/12/07 13:18:43;;;;;;;;;;;20.50;99.90;;;;;;5097006;28;19908;-63
2021/12/07 13:21:26;;;;;;;;;;;20.50;99.90;;;;;;5097001;28;19965;-62
2021/12/07 13:23:59;;;;;;;;;;;20.50;99.90;;;;;;5096973;28;20361;-63
2021/12/07 13:26:26;;;;;;;;;;;20.50;99.90;;;;;;5096977;28;19912;-62
2021/12/07 13:29:11;;;;;;;;;;;20.50;99.90;;;;;;5096904;28;19947;-62
2021/12/07 13:31:39;;;;;;;;;;;20.50;99.90;;;;;;5096759;28;19967;-62
2021/12/07 13:34:05;;;;;;;;;;;20.50;99.90;;;;;;5096830;28;19912;-62
2021/12/07 13:36:37;;;;;;;;;;;20.50;99.90;;;;;;5096479;28;19915;-63
2021/12/07 13:39:13;;;;;;;;;;;20.40;99.90;;;;;;5096462;28;19915;-64
2021/12/07 13:41:49;;;;;;;;;;;20.50;99.90;;;;;;5096646;28;19912;-63
2021/12/07 13:44:16;;;;;;;;;;;20.40;99.90;;;;;;5078337;28;19912;-62
2021/12/07 13:46:43;;;;;;;;;;;20.40;99.90;;;;;;5078544;28;19914;-63
2021/12/07 13:49:10;;;;;;;;;;;20.40;99.90;;;;;;5096534;28;19915;-63
2021/12/07 13:51:37;;;;;;;;;;;20.40;99.90;;;;;;5096515;28;20030;-63
2021/12/07 13:54:04;;;;;;;;;;;20.30;99.90;;;;;;5096505;28;19908;-63
2021/12/07 13:56:35;;;;;;;;;;;20.30;99.90;;;;;;5096438;28;20170;-63
2021/12/07 13:59:03;;;;;;;;;;;20.30;99.90;;;;;;5078294;28;20300;-62
2021/12/07 14:01:31;;;;;;;;;;;20.20;99.90;;;;;;5096183;28;19934;-63
2021/12/07 14:03:58;;;;;;;;;;;20.20;99.90;;;;;;5096277;28;19908;-62
2021/12/07 14:06:31;;;;;;;;;;;20.20;99.90;;;;;;5096341;28;19948;-62
2021/12/07 14:09:08;;;;;;;;;;;20.20;99.90;;;;;;5077867;28;19908;-63
2021/12/07 14:11:34;;;;;;;;;;;20.10;99.90;;;;;;5096133;28;19912;-63
2021/12/07 14:14:02;;;;;;;;;;;20.00;99.90;;;;;;5096066;28;19947;-62
2021/12/07 14:16:31;;;;;;;;;;;20.00;99.90;;;;;;5096053;28;20315;-63
2021/12/07 14:18:58;;;;;;;;;;;20.00;99.90;;;;;;5096005;28;19908;-62
2021/12/07 14:21:25;;;;;;;;;;;20.00;99.90;;;;;;5095870;28;19912;-62
2021/12/07 14:24:02;;;;;;;;;;;19.90;99.90;;;;;;5095874;28;19912;-63
2021/12/07 14:26:29;;;;;;;;;;;19.90;99.90;;;;;;5094900;28;19908;-63
2021/12/07 14:29:03;;;;;;;;;;;19.90;99.90;;;;;;5077793;28;19912;-62
2021/12/07 14:31:34;;;;;;;;;;;19.80;99.90;;;;;;5095715;28;19908;-63
2021/12/07 14:34:01;;;;;;;;;;;19.80;99.90;;;;;;5077742;28;20399;-63
2021/12/07 14:36:54;;;;;;;;;;;19.80;99.90;;;;;;5095545;28;19944;-62
2021/12/07 14:39:25;;;;;;;;;;;19.80;99.90;;;;;;5091609;28;19912;-63
2021/12/07 14:41:54;;;;;;;;;;;19.80;99.90;;;;;;5095421;28;20011;-63
2021/12/07 14:44:22;;;;;;;;;;;19.70;99.90;;;;;;5095533;28;19912;-63
2021/12/07 14:46:49;;;;;;;;;;;19.70;99.90;;;;;;5095354;28;19961;-62
2021/12/07 14:49:16;;;;;;;;;;;19.70;99.90;;;;;;5095376;28;19916;-62
2021/12/07 14:51:43;;;;;;;;;;;19.70;99.90;;;;;;5095285;28;19969;-62
2021/12/07 14:54:10;;;;;;;;;;;19.70;99.90;;;;;;5095278;28;19908;-62
2021/12/07 14:56:37;;;;;;;;;;;19.70;99.90;;;;;;5060336;28;19940;-62
2021/12/07 14:59:07;;;;;;;;;;;19.70;99.90;;;;;;5095054;28;19908;-62
2021/12/07 15:01:35;;;;;;;;;;;19.60;99.90;;;;;;5076822;28;19954;-62
2021/12/07 15:04:04;;;;;;;;;;;19.60;99.90;;;;;;5095036;28;19908;-62
2021/12/07 15:06:31;;;;;;;;;;;19.50;99.90;;;;;;5076683;28;19908;-62
2021/12/07 15:08:58;;;;;;;;;;;19.50;99.90;;;;;;5094940;28;20329;-62
2021/12/07 15:11:25;;;;;;;;;;;19.50;99.90;;;;;;5094989;28;19990;-63
2021/12/07 15:13:52;;;;;;;;;;;19.50;99.90;;;;;;5094897;28;20364;-62
2021/12/07 15:16:19;;;;;;;;;;;19.50;99.90;;;;;;5094878;28;19915;-62
2021/12/07 15:18:46;;;;;;;;;;;19.50;99.90;;;;;;5094638;28;19955;-62
2021/12/07 15:21:13;;;;;;;;;;;19.50;99.90;;;;;;5094633;28;20009;-62
2021/12/07 15:23:50;;;;;;;;;;;19.40;99.90;;;;;;5094719;28;19947;-62
2021/12/07 15:26:17;;;;;;;;;;;19.40;99.90;;;;;;5076369;28;19919;-62
2021/12/07 15:28:54;;;;;;;;;;;19.40;99.90;;;;;;5076519;28;20283;-62
2021/12/07 15:31:21;;;;;;;;;;;19.40;99.90;;;;;;5094698;28;20007;-62
2021/12/07 15:33:49;;;;;;;;;;;19.40;99.90;;;;;;5094574;28;19951;-63
2021/12/07 15:36:17;;;;;;;;;;;19.30;99.90;;;;;;5094541;28;19992;-62
2021/12/07 15:38:44;;;;;;;;;;;19.30;99.90;;;;;;5094247;28;19943;-62
2021/12/07 15:41:11;;;;;;;;;;;19.30;99.90;;;;;;5094182;28;19927;-62
2021/12/07 15:43:42;;;;;;;;;;;19.30;99.90;;;;;;5094246;28;20284;-62
2021/12/07 15:46:14;;;;;;;;;;;19.30;99.90;;;;;;5094115;28;19915;-63
2021/12/07 15:48:41;;;;;;;;;;;19.40;99.90;;;;;;5094169;28;19912;-62
2021/12/07 15:51:08;;;;;;;;;;;19.40;99.90;;;;;;5080363;28;20271;-62
2021/12/07 15:53:36;;;;;;;;;;;19.40;99.90;;;;;;5114596;28;19908;-62
2021/12/07 15:56:03;;;;;;;;;;;19.40;99.90;;;;;;5113890;28;20471;-62
2021/12/07 15:58:30;;;;;;;;;;;19.40;99.90;;;;;;5113699;28;19908;-62
2021/12/07 16:00:58;;;;;;;;;;;19.30;99.90;;;;;;5096815;28;19958;-63
2021/12/07 16:03:26;;;;;;;;;;;19.30;99.90;;;;;;5094000;28;20441;-62